Time;durP1;ratioP1;P1;durP2;ratioP2;P2;SDS_P1;SDS_P2;PMS_P1;PMS_P2;Temp;Humidity;BMP_temperature;BMP_pressure;BME280_temperature;BME280_humidity;BME280_pressure;Samples;Min_cycle;Max_cycle;Signal;HPM_P1;HPM_P2
2022/11/06 00:02:01;;;;;;;0.87;0.87;;;;;;;11.47;96.53;99110.19;5052511;28;20200;-71
2022/11/06 00:04:29;;;;;;;0.83;0.83;;;;;;;11.35;98.34;99092.72;5052203;28;20680;-71
2022/11/06 00:06:55;;;;;;;1.77;1.77;;;;;;;11.25;99.35;99099.09;5052619;28;20201;-71
2022/11/06 00:09:22;;;;;;;0.80;0.80;;;;;;;11.26;100.00;99085.38;5052240;28;20201;-71
2022/11/06 00:11:51;;;;;;;1.10;1.10;;;;;;;11.28;100.00;99082.72;5051156;28;20211;-72
2022/11/06 00:14:19;;;;;;;0.50;0.50;;;;;;;11.19;100.00;99076.22;5050543;28;20221;-71
2022/11/06 00:16:48;;;;;;;2.07;1.13;;;;;;;11.21;100.00;99087.25;5052630;28;20212;-71
2022/11/06 00:19:15;;;;;;;1.07;1.07;;;;;;;11.10;100.00;99074.00;5051535;28;20228;-71
2022/11/06 00:21:42;;;;;;;0.67;0.67;;;;;;;11.27;100.00;99094.75;5050598;28;20570;-71
2022/11/06 00:24:11;;;;;;;0.80;0.80;;;;;;;11.32;100.00;99085.13;5051582;28;20676;-72
2022/11/06 00:26:37;;;;;;;0.90;0.90;;;;;;;11.34;100.00;99093.59;5052373;28;20208;-71
2022/11/06 00:29:06;;;;;;;1.90;1.73;;;;;;;11.30;100.00;99084.38;5051933;28;20208;-71
2022/11/06 00:31:36;;;;;;;0.70;0.70;;;;;;;11.47;99.36;99105.06;5051581;28;20838;-71
2022/11/06 00:34:05;;;;;;;1.80;1.17;;;;;;;11.38;98.84;99079.75;5051307;28;20201;-71
2022/11/06 00:36:32;;;;;;;0.90;0.90;;;;;;;11.51;98.84;99100.66;5051752;28;20188;-71
2022/11/06 00:39:00;;;;;;;1.90;1.13;;;;;;;11.53;98.28;99097.13;5051766;28;20232;-71
2022/11/06 00:41:27;;;;;;;1.03;1.03;;;;;;;11.54;97.87;99093.69;5051483;28;20204;-71
2022/11/06 00:43:57;;;;;;;2.53;2.50;;;;;;;11.48;97.74;99091.34;5051239;28;20247;-71
2022/11/06 00:46:24;;;;;;;0.50;0.50;;;;;;;11.50;96.83;99094.69;5051853;28;20668;-71
2022/11/06 00:48:53;;;;;;;0.90;0.90;;;;;;;11.49;96.74;99087.06;5051054;28;20266;-71
2022/11/06 00:51:22;;;;;;;1.50;1.40;;;;;;;11.50;96.52;99086.97;5051532;28;20276;-71
2022/11/06 00:53:53;;;;;;;1.00;1.00;;;;;;;11.48;96.33;99101.63;5050701;28;20580;-71
2022/11/06 00:56:21;;;;;;;0.60;0.60;;;;;;;11.50;95.78;99099.81;5051251;28;20294;-71
2022/11/06 00:58:48;;;;;;;0.60;0.60;;;;;;;11.46;95.62;99090.59;5051694;28;20189;-71
2022/11/06 01:01:17;;;;;;;0.73;0.73;;;;;;;11.43;95.35;99098.41;5047317;28;20241;-71
2022/11/06 01:03:46;;;;;;;1.17;1.17;;;;;;;11.37;95.54;99098.59;5051103;28;20254;-71
2022/11/06 01:06:16;;;;;;;0.80;0.80;;;;;;;11.36;96.04;99102.09;5050273;28;20204;-71
2022/11/06 01:08:43;;;;;;;1.00;1.00;;;;;;;11.32;95.77;99103.09;5050702;28;20215;-71
2022/11/06 01:11:12;;;;;;;0.50;0.50;;;;;;;11.29;95.79;99105.78;5050547;28;20205;-71
2022/11/06 01:13:39;;;;;;;0.93;0.93;;;;;;;11.29;95.91;99113.47;5050700;28;20730;-71
2022/11/06 01:16:08;;;;;;;0.70;0.70;;;;;;;11.20;95.78;99103.56;5051067;28;20707;-71
2022/11/06 01:18:36;;;;;;;0.50;0.50;;;;;;;11.14;95.54;99096.09;5050990;28;20211;-71
2022/11/06 01:21:05;;;;;;;1.17;1.17;;;;;;;11.20;95.10;99111.25;5050712;28;20259;-71
2022/11/06 01:23:34;;;;;;;0.57;0.57;;;;;;;11.20;95.27;99111.25;5051164;28;20201;-71
2022/11/06 01:26:03;;;;;;;0.80;0.80;;;;;;;11.14;94.41;99116.63;5051172;28;20193;-71
2022/11/06 01:28:31;;;;;;;0.60;0.60;;;;;;;10.99;94.13;99102.63;5051164;28;20193;-71
2022/11/06 01:31:02;;;;;;;0.60;0.60;;;;;;;11.01;94.78;99116.25;5050701;28;20192;-71
2022/11/06 01:33:29;;;;;;;1.07;1.07;;;;;;;10.99;94.60;99112.03;5050609;28;20284;-71
2022/11/06 01:35:56;;;;;;;1.50;1.50;;;;;;;10.70;94.78;99063.53;5050978;28;20680;-71
2022/11/06 01:38:23;;;;;;;5.07;1.53;;;;;;;10.96;95.10;99101.88;5050591;28;20236;-71
2022/11/06 01:40:51;;;;;;;3.60;1.33;;;;;;;10.97;95.53;99104.41;5050915;28;20665;-71
2022/11/06 01:43:20;;;;;;;1.70;1.10;;;;;;;10.92;95.33;99096.03;5050364;28;20254;-71
2022/11/06 01:45:50;;;;;;;1.37;1.33;;;;;;;10.89;95.70;99100.44;5050798;28;20695;-71
2022/11/06 01:48:18;;;;;;;0.67;0.67;;;;;;;10.86;96.41;99101.38;5050300;28;20212;-70
2022/11/06 01:50:49;;;;;;;1.23;1.13;;;;;;;10.66;96.50;99078.22;5050871;28;20649;-71
2022/11/06 01:53:16;;;;;;;0.97;0.97;;;;;;;10.81;96.59;99107.56;5050558;28;20193;-71
2022/11/06 01:55:46;;;;;;;0.70;0.70;;;;;;;10.83;96.54;99110.91;5050568;28;20208;-71
2022/11/06 01:58:17;;;;;;;0.90;0.90;;;;;;;10.81;95.82;99099.88;5050549;28;20196;-71
2022/11/06 02:00:44;;;;;;;1.03;1.03;;;;;;;10.67;96.28;99089.28;5050262;28;20219;-71
2022/11/06 02:03:12;;;;;;;0.73;0.73;;;;;;;10.67;97.05;99112.34;5050549;28;20192;-71
2022/11/06 02:05:39;;;;;;;0.60;0.60;;;;;;;10.68;97.21;99114.88;5050256;28;20538;-71
2022/11/06 02:08:08;;;;;;;0.63;0.63;;;;;;;10.72;96.59;99110.47;5048849;28;20691;-71
2022/11/06 02:10:36;;;;;;;1.07;1.07;;;;;;;10.69;96.07;99098.59;5049968;28;20208;-71
2022/11/06 02:13:21;;;;;;;0.80;0.80;;;;;;;10.53;96.06;99067.53;5050206;28;20196;-71
2022/11/06 02:15:52;;;;;;;0.50;0.50;;;;;;;10.64;96.48;99099.63;5049865;28;20712;-71
2022/11/06 02:18:37;;;;;;;0.90;0.90;;;;;;;10.62;96.74;99086.06;5050479;28;20255;-71
2022/11/06 02:21:24;;;;;;;1.17;1.17;;;;;;;10.65;96.65;99088.50;5049808;28;20203;-71
2022/11/06 02:24:08;;;;;;;0.40;0.40;;;;;;;10.59;97.08;99093.84;5049450;28;20200;-71
2022/11/06 02:27:02;;;;;;;1.03;1.03;;;;;;;10.52;97.03;99096.63;5050260;28;20227;-71
2022/11/06 02:29:33;;;;;;;1.03;1.03;;;;;;;10.49;97.77;99107.00;5050074;28;20246;-71
2022/11/06 02:32:06;;;;;;;1.10;1.10;;;;;;;10.47;97.24;99097.66;5050293;28;20197;-71
2022/11/06 02:34:35;;;;;;;1.30;1.30;;;;;;;10.48;97.25;99096.78;5050228;28;20193;-71
2022/11/06 02:37:09;;;;;;;1.20;1.20;;;;;;;10.44;98.47;99085.78;5049980;28;20200;-70
2022/11/06 02:39:39;;;;;;;0.57;0.57;;;;;;;10.43;98.79;99089.28;5049788;28;20201;-70
2022/11/06 02:42:10;;;;;;;1.10;1.10;;;;;;;10.44;98.46;99088.34;5049984;28;20204;-70
2022/11/06 02:44:39;;;;;;;1.97;1.87;;;;;;;10.45;98.54;99084.91;5049670;28;20203;-71
2022/11/06 02:47:09;;;;;;;0.90;0.90;;;;;;;10.50;98.38;99092.47;5053974;28;20692;-71
2022/11/06 02:49:40;;;;;;;0.87;0.87;;;;;;;10.49;98.58;99101.03;5053539;28;20220;-71
2022/11/06 02:52:11;;;;;;;0.60;0.60;;;;;;;10.48;98.28;99095.06;5053466;28;20197;-71
2022/11/06 02:54:42;;;;;;;0.60;0.60;;;;;;;10.39;98.54;99084.28;5053852;28;20673;-71
2022/11/06 02:57:14;;;;;;;0.60;0.60;;;;;;;10.42;98.32;99079.06;5053712;28;20691;-71
2022/11/06 02:59:49;;;;;;;0.63;0.63;;;;;;;10.54;97.72;99099.13;5053499;28;20193;-71
2022/11/06 03:02:21;;;;;;;1.10;1.10;;;;;;;10.53;98.13;99108.53;5053419;28;20692;-71
2022/11/06 03:04:51;;;;;;;1.13;1.13;;;;;;;10.48;98.66;99099.34;5052614;28;20228;-71
2022/11/06 03:07:25;;;;;;;0.80;0.80;;;;;;;10.48;98.03;99100.19;5052585;28;20197;-71
2022/11/06 03:09:52;;;;;;;1.83;1.33;;;;;;;10.48;98.09;99115.56;5053609;28;20220;-70
2022/11/06 03:12:25;;;;;;;1.53;1.43;;;;;;;10.38;98.09;99088.56;5053391;28;20201;-70
2022/11/06 03:14:57;;;;;;;2.00;1.93;;;;;;;10.45;97.63;99107.97;5053078;28;20760;-71
2022/11/06 03:17:38;;;;;;;1.03;1.03;;;;;;;10.39;98.12;99109.91;5050798;28;20208;-71
2022/11/06 03:20:14;;;;;;;0.60;0.60;;;;;;;10.32;98.69;99104.16;5053324;28;20733;-71
2022/11/06 03:22:46;;;;;;;0.90;0.90;;;;;;;10.35;99.31;99109.19;5053094;28;20205;-71
2022/11/06 03:25:18;;;;;;;1.47;1.47;;;;;;;10.31;99.20;99099.06;5053454;28;20189;-71
2022/11/06 03:27:51;;;;;;;0.60;0.60;;;;;;;10.21;98.81;99075.50;5052800;28;20211;-71
2022/11/06 03:30:18;;;;;;;1.27;1.20;;;;;;;10.40;98.56;99106.47;5053233;28;20212;-71
2022/11/06 03:32:48;;;;;;;0.93;0.93;;;;;;;10.35;98.82;99104.06;5052743;28;20197;-71
2022/11/06 03:35:21;;;;;;;0.70;0.70;;;;;;;10.29;98.96;99094.00;5050800;28;20213;-71
2022/11/06 03:37:54;;;;;;;1.20;1.20;;;;;;;10.36;98.76;99099.75;5052692;28;20550;-70
2022/11/06 03:40:24;;;;;;;2.03;2.03;;;;;;;10.36;98.51;99105.72;5051061;28;20669;-71
2022/11/06 03:42:54;;;;;;;0.50;0.50;;;;;;;10.36;98.71;99107.44;5052531;28;20201;-71
2022/11/06 03:45:24;;;;;;;0.70;0.70;;;;;;;10.37;98.51;99109.94;5051468;28;20645;-71
2022/11/06 03:47:57;;;;;;;0.57;0.57;;;;;;;10.35;99.07;99118.59;5052674;28;20205;-70
2022/11/06 03:50:29;;;;;;;1.20;1.20;;;;;;;10.31;99.03;99115.28;5050551;28;20722;-71
2022/11/06 03:53:00;;;;;;;0.50;0.50;;;;;;;10.28;99.10;99105.13;5052335;28;20196;-71
2022/11/06 03:55:32;;;;;;;0.80;0.80;;;;;;;10.28;99.35;99105.13;5052925;28;20252;-71
2022/11/06 03:58:05;;;;;;;1.00;1.00;;;;;;;10.29;99.15;99108.53;5052453;28;20196;-70
2022/11/06 04:00:35;;;;;;;0.50;0.50;;;;;;;10.26;99.73;99103.53;5051346;28;20211;-70
2022/11/06 04:03:07;;;;;;;1.13;1.13;;;;;;;10.16;100.00;99097.88;5051103;28;20209;-71
2022/11/06 04:05:40;;;;;;;0.80;0.80;;;;;;;10.11;100.00;99115.09;5052102;28;20292;-71
2022/11/06 04:13:59;;;;;;;5.07;1.73;;;;;;;10.06;100.00;99116.94;5051906;28;20200;-70
2022/11/06 04:16:31;;;;;;;1.37;1.37;;;;;;;9.94;100.00;99100.28;5048556;28;20225;-70
2022/11/06 04:18:59;;;;;;;1.10;1.10;;;;;;;10.02;100.00;99125.63;5052193;28;20220;-70
2022/11/06 04:21:33;;;;;;;0.87;0.87;;;;;;;10.01;100.00;99129.09;5052431;28;20197;-70
2022/11/06 04:27:04;;;;;;;0.60;0.60;;;;;;;10.06;100.00;99116.94;5051743;28;20192;-72
2022/11/06 04:29:47;;;;;;;1.97;1.53;;;;;;;10.12;100.00;99110.78;5052163;28;20200;-72
2022/11/06 04:32:21;;;;;;;1.00;1.00;;;;;;;10.13;100.00;99115.88;5051797;28;20299;-71
2022/11/06 04:34:56;;;;;;;1.27;1.27;;;;;;;10.16;100.00;99107.28;5051972;28;20203;-70
2022/11/06 04:37:29;;;;;;;0.60;0.60;;;;;;;10.14;100.00;99102.22;5051678;28;20223;-70
2022/11/06 04:40:02;;;;;;;0.67;0.67;;;;;;;10.15;100.00;99111.56;5051821;28;20205;-70
2022/11/06 04:42:36;;;;;;;0.80;0.80;;;;;;;9.99;100.00;99084.75;5051875;28;20224;-70
2022/11/06 04:45:08;;;;;;;1.07;1.07;;;;;;;10.08;100.00;99089.56;5051591;28;20197;-70
2022/11/06 04:47:37;;;;;;;0.53;0.53;;;;;;;10.22;100.00;99113.03;5051238;28;20212;-70
2022/11/06 04:50:07;;;;;;;1.23;1.23;;;;;;;10.18;100.00;99116.56;5051627;28;20660;-70
2022/11/06 04:52:36;;;;;;;0.90;0.90;;;;;;;10.19;100.00;99119.97;5050342;28;20204;-70
2022/11/06 04:55:04;;;;;;;0.97;0.97;;;;;;;10.19;100.00;99123.38;5051147;28;20205;-70
2022/11/06 04:57:31;;;;;;;0.80;0.80;;;;;;;10.11;100.00;99122.78;5050925;28;20197;-70
2022/11/06 04:59:58;;;;;;;0.60;0.60;;;;;;;10.10;100.00;99123.66;5050387;28;20201;-70
2022/11/06 05:02:26;;;;;;;0.60;0.60;;;;;;;10.06;100.00;99132.31;5050143;28;20204;-70
2022/11/06 05:04:53;;;;;;;1.13;1.13;;;;;;;10.06;100.00;99116.94;5050745;28;20220;-70
2022/11/06 05:07:19;;;;;;;1.10;1.10;;;;;;;10.09;100.00;99124.53;5050823;28;20193;-71
2022/11/06 05:09:46;;;;;;;0.83;0.83;;;;;;;10.14;100.00;99119.31;5050599;28;20566;-70
2022/11/06 05:12:13;;;;;;;6.80;2.73;;;;;;;10.16;100.00;99126.03;5050920;28;20211;-70
2022/11/06 05:14:40;;;;;;;2.77;1.77;;;;;;;10.17;100.00;99109.81;5050627;28;20259;-71
2022/11/06 05:17:07;;;;;;;1.33;1.33;;;;;;;10.19;100.00;99118.25;5050608;28;20216;-70
2022/11/06 05:19:35;;;;;;;1.00;1.00;;;;;;;10.25;100.00;99120.63;5050583;28;20196;-70
2022/11/06 05:24:47;;;;;;;0.70;0.70;;;;;;;10.30;100.00;99136.69;5050704;28;20200;-70
2022/11/06 05:27:13;;;;;;;0.60;0.60;;;;;;;10.31;100.00;99137.50;5051150;28;20192;-70
2022/11/06 05:29:40;;;;;;;1.00;1.00;;;;;;;10.35;100.00;99139.91;5050858;28;20201;-70
2022/11/06 05:32:07;;;;;;;1.57;1.57;;;;;;;10.40;100.00;99148.28;5050336;28;20589;-70
2022/11/06 05:34:35;;;;;;;1.23;1.23;;;;;;;10.43;100.00;99143.09;5051043;28;20207;-72
2022/11/06 05:37:02;;;;;;;0.83;0.83;;;;;;;10.45;100.00;99143.84;5050557;28;20270;-70
2022/11/06 05:39:29;;;;;;;0.87;0.87;;;;;;;10.48;100.00;99151.44;5050630;28;20334;-70
2022/11/06 05:41:56;;;;;;;1.33;1.33;;;;;;;10.51;100.00;99153.91;5050897;28;20212;-70
2022/11/06 05:44:22;;;;;;;1.83;1.73;;;;;;;10.56;100.00;99152.91;5050666;28;20207;-69
2022/11/06 05:46:49;;;;;;;0.57;0.57;;;;;;;10.56;100.00;99147.78;5051127;28;20680;-70
2022/11/06 05:49:17;;;;;;;1.10;1.10;;;;;;;10.54;100.00;99150.38;5050837;28;20208;-70
2022/11/06 05:51:45;;;;;;;0.90;0.90;;;;;;;10.56;100.00;99158.03;5050401;28;20238;-70
2022/11/06 05:54:12;;;;;;;0.60;0.60;;;;;;;10.55;100.00;99146.94;5048917;28;20201;-70
2022/11/06 05:56:38;;;;;;;0.80;0.80;;;;;;;10.61;100.00;99158.69;5048949;28;20216;-70
2022/11/06 05:59:05;;;;;;;0.60;0.60;;;;;;;10.64;100.00;99161.16;5049229;28;20559;-70
2022/11/06 06:01:32;;;;;;;1.77;1.40;;;;;;;10.68;100.00;99173.00;5045975;28;20210;-70
2022/11/06 06:03:59;;;;;;;1.70;1.67;;;;;;;10.65;100.00;99179.06;5047819;28;20258;-70
2022/11/06 06:06:26;;;;;;;0.93;0.93;;;;;;;10.58;100.00;99187.00;5050277;28;20572;-69
2022/11/06 06:08:55;;;;;;;0.60;0.60;;;;;;;10.49;100.00;99200.97;5048228;28;20212;-70
2022/11/06 06:11:21;;;;;;;0.67;0.67;;;;;;;10.38;100.00;99197.91;5047202;28;20239;-69
2022/11/06 06:13:48;;;;;;;1.00;1.00;;;;;;;10.35;100.00;99206.53;5045711;28;20211;-70
2022/11/06 06:16:15;;;;;;;0.60;0.60;;;;;;;10.39;100.00;99208.13;5043846;28;20315;-70
2022/11/06 06:18:42;;;;;;;0.73;0.73;;;;;;;10.43;100.00;99217.41;5044526;28;20205;-70
2022/11/06 06:21:09;;;;;;;0.63;0.63;;;;;;;10.44;100.00;99220.75;5046116;28;20579;-70
2022/11/06 06:23:36;;;;;;;1.00;1.00;;;;;;;10.51;100.00;99212.84;5049497;28;20239;-70
2022/11/06 06:26:05;;;;;;;0.93;0.93;;;;;;;10.62;100.00;99216.78;5051144;28;20197;-70
2022/11/06 06:28:32;;;;;;;1.20;1.20;;;;;;;10.68;100.00;99224.25;5048745;28;20273;-70
2022/11/06 06:30:58;;;;;;;1.97;1.87;;;;;;;10.76;100.00;99222.28;5051940;28;20569;-70
2022/11/06 06:33:25;;;;;;;0.60;0.60;;;;;;;10.82;100.00;99217.78;5053657;28;20208;-70
2022/11/06 06:35:52;;;;;;;0.90;0.90;;;;;;;10.90;100.00;99226.06;5054196;28;20220;-70
2022/11/06 06:38:19;;;;;;;0.50;0.50;;;;;;;10.99;100.00;99220.59;5054258;28;20627;-70
2022/11/06 06:40:45;;;;;;;0.70;0.70;;;;;;;11.02;100.00;99219.66;5054608;28;20219;-70
2022/11/06 06:43:14;;;;;;;0.73;0.73;;;;;;;11.10;100.00;99227.94;5054489;28;20196;-72
2022/11/06 06:45:40;;;;;;;0.80;0.80;;;;;;;11.21;100.00;99241.19;5051561;28;20247;-70
2022/11/06 06:48:08;;;;;;;0.70;0.70;;;;;;;11.29;100.00;99246.91;5053862;28;20205;-70
2022/11/06 06:50:34;;;;;;;5.10;2.40;;;;;;;11.36;100.00;99245.81;5053983;28;20205;-70
2022/11/06 06:53:01;;;;;;;1.03;1.03;;;;;;;11.39;100.00;99243.13;5053120;28;20204;-70
2022/11/06 06:55:28;;;;;;;0.77;0.77;;;;;;;11.46;100.00;99251.44;5053515;28;20215;-70
2022/11/06 06:57:59;;;;;;;0.80;0.80;;;;;;;11.53;100.00;99246.00;5053256;28;20763;-70
2022/11/06 07:00:28;;;;;;;1.07;1.07;;;;;;;11.56;100.00;99248.50;5053176;28;20205;-71
2022/11/06 07:02:55;;;;;;;0.60;0.60;;;;;;;11.65;100.00;99257.59;5053811;28;20216;-70
2022/11/06 07:05:21;;;;;;;0.60;0.60;;;;;;;11.73;100.00;99254.78;5053708;28;20216;-70
2022/11/06 07:07:48;;;;;;;1.67;1.57;;;;;;;11.75;100.00;99263.25;5053600;28;20193;-70
2022/11/06 07:10:15;;;;;;;0.80;0.80;;;;;;;11.76;100.00;99270.88;5053748;28;20718;-70
2022/11/06 07:12:42;;;;;;;0.97;0.97;;;;;;;11.75;100.00;99263.25;5053668;28;20207;-70
2022/11/06 07:15:09;;;;;;;0.80;0.80;;;;;;;11.71;100.00;99266.81;5052491;28;20255;-70
2022/11/06 07:17:38;;;;;;;2.10;2.00;;;;;;;11.62;100.00;99256.88;5052366;28;20681;-70
2022/11/06 07:20:06;;;;;;;0.97;0.97;;;;;;;11.74;100.00;99276.97;5050776;28;20200;-70
2022/11/06 07:22:33;;;;;;;0.57;0.57;;;;;;;11.76;100.00;99272.66;5042797;28;20612;-70
2022/11/06 07:25:00;;;;;;;0.97;0.97;;;;;;;11.77;100.00;99276.88;5050082;28;20201;-71
2022/11/06 07:27:27;;;;;;;0.60;0.60;;;;;;;11.83;100.00;99271.50;5052156;28;20572;-70
2022/11/06 07:29:54;;;;;;;1.93;1.83;;;;;;;11.93;100.00;99277.97;5050905;28;20205;-70
2022/11/06 07:32:21;;;;;;;2.40;2.10;;;;;;;12.01;100.00;99281.09;5051338;28;20243;-77
2022/11/06 07:34:49;;;;;;;0.93;0.93;;;;;;;12.07;100.00;99278.28;5051102;28;20589;-77
2022/11/06 07:37:16;;;;;;;1.03;1.03;;;;;;;12.13;100.00;99272.06;5050101;28;20224;-77
2022/11/06 07:39:43;;;;;;;3.40;1.80;;;;;;;12.25;100.00;99269.88;5051013;28;20204;-78
2022/11/06 07:42:10;;;;;;;0.77;0.77;;;;;;;12.31;100.00;99282.47;5051111;28;20205;-77
2022/11/06 07:44:36;;;;;;;1.13;1.13;;;;;;;12.41;100.00;99285.53;5047821;28;20216;-77
2022/11/06 07:47:04;;;;;;;0.80;0.80;;;;;;;12.47;100.00;99280.16;5050780;28;20200;-78
2022/11/06 07:49:30;;;;;;;0.83;0.83;;;;;;;12.50;100.00;99275.72;5050370;28;20201;-79
2022/11/06 07:51:58;;;;;;;1.30;1.20;;;;;;;12.60;100.00;99277.03;5046553;28;21415;-77
2022/11/06 07:54:25;;;;;;;0.63;0.63;;;;;;;12.68;100.00;99283.59;5049620;28;20209;-77
2022/11/06 07:56:52;;;;;;;0.60;0.60;;;;;;;12.80;100.00;99281.34;5052610;28;20217;-77
2022/11/06 07:59:19;;;;;;;2.97;1.97;;;;;;;12.88;100.00;99281.91;5046437;28;20208;-77
2022/11/06 08:01:46;;;;;;;0.90;0.90;;;;;;;13.00;100.00;99296.81;5050482;28;20205;-77
2022/11/06 08:04:13;;;;;;;1.90;0.90;;;;;;;13.06;100.00;99303.44;5048483;28;20807;-68
2022/11/06 08:06:39;;;;;;;0.73;0.73;;;;;;;13.22;100.00;99301.91;5050291;28;20443;-67
2022/11/06 08:09:08;;;;;;;5.17;0.97;;;;;;;13.38;100.00;99308.09;5050693;28;20580;-66
2022/11/06 08:11:35;;;;;;;0.80;0.80;;;;;;;13.41;100.00;99312.28;5050934;28;20213;-66
2022/11/06 08:14:02;;;;;;;0.87;0.87;;;;;;;13.43;100.00;99315.63;5006717;28;1208626;-66
2022/11/06 08:16:30;;;;;;;0.80;0.80;;;;;;;13.42;100.00;99322.50;5052296;28;20217;-67
2022/11/06 08:18:56;;;;;;;0.40;0.40;;;;;;;13.48;100.00;99319.66;5052909;28;20203;-66
2022/11/06 08:21:23;;;;;;;0.50;0.50;;;;;;;13.45;100.00;99319.81;5052683;28;20580;-66
2022/11/06 08:23:50;;;;;;;0.57;0.57;;;;;;;13.43;100.00;99316.47;5051273;28;20205;-66
2022/11/06 08:26:18;;;;;;;0.60;0.60;;;;;;;13.41;100.00;99320.84;5051608;28;20607;-67
2022/11/06 08:28:45;;;;;;;0.93;0.93;;;;;;;13.37;100.00;99334.75;5052146;28;20202;-66
2022/11/06 08:31:12;;;;;;;0.87;0.87;;;;;;;13.38;100.00;99336.41;5051545;28;20205;-66
2022/11/06 08:33:40;;;;;;;0.73;0.73;;;;;;;13.37;100.00;99334.75;5051653;28;20638;-66
2022/11/06 08:36:09;;;;;;;0.50;0.50;;;;;;;13.42;100.00;99340.53;5050695;28;20200;-66
2022/11/06 08:38:36;;;;;;;0.90;0.90;;;;;;;13.47;100.00;99348.09;5050871;28;20204;-67
2022/11/06 08:41:06;;;;;;;0.57;0.57;;;;;;;13.47;100.00;99338.59;5051902;28;20208;-66
2022/11/06 08:43:35;;;;;;;0.80;0.80;;;;;;;13.54;100.00;99350.31;5051046;28;20208;-66
2022/11/06 08:46:02;;;;;;;0.97;0.97;;;;;;;13.58;100.00;99367.31;5051437;28;20250;-64
2022/11/06 08:48:29;;;;;;;0.90;0.90;;;;;;;13.64;100.00;99361.06;5051796;28;20266;-64
2022/11/06 08:50:56;;;;;;;1.37;1.30;;;;;;;13.70;100.00;99359.97;5051251;28;20197;-64
2022/11/06 08:53:23;;;;;;;1.00;1.00;;;;;;;13.72;100.00;99355.59;5051625;28;20601;-64
2022/11/06 08:55:49;;;;;;;0.50;0.50;;;;;;;13.78;100.00;99351.00;5051739;28;20192;-64
2022/11/06 08:58:16;;;;;;;0.60;0.60;;;;;;;13.85;100.00;99354.13;5051400;28;20685;-64
2022/11/06 09:00:45;;;;;;;0.70;0.70;;;;;;;13.92;100.00;99358.97;5051062;28;20208;-64
2022/11/06 09:03:14;;;;;;;1.20;1.20;;;;;;;13.92;100.00;99350.38;5051363;28;20619;-64
2022/11/06 09:05:41;;;;;;;0.53;0.53;;;;;;;14.07;100.00;99344.53;5051298;28;20197;-65
2022/11/06 09:08:08;;;;;;;9.60;1.47;;;;;;;14.14;100.00;99346.78;5051656;28;20207;-64
2022/11/06 09:10:37;;;;;;;1.50;1.23;;;;;;;14.21;100.00;99360.22;5051867;28;20215;-64
2022/11/06 09:13:04;;;;;;;1.60;1.50;;;;;;;14.19;100.00;99349.97;5052479;28;20223;-64
2022/11/06 09:15:31;;;;;;;1.47;1.47;;;;;;;14.24;100.00;99346.34;5052091;28;20684;-64
2022/11/06 09:17:59;;;;;;;1.77;1.67;;;;;;;14.31;100.00;99348.59;5052343;28;20216;-65
2022/11/06 09:20:26;;;;;;;0.70;0.70;;;;;;;14.31;100.00;99348.59;5052075;28;20201;-65
2022/11/06 09:22:54;;;;;;;0.87;0.87;;;;;;;14.29;100.00;99347.81;5051914;28;20200;-65
2022/11/06 09:25:21;;;;;;;0.60;0.60;;;;;;;14.30;100.00;99348.66;5051865;28;20201;-65
2022/11/06 09:27:49;;;;;;;1.03;1.03;;;;;;;14.33;100.00;99346.81;5052326;28;20219;-65
2022/11/06 09:30:19;;;;;;;0.50;0.50;;;;;;;14.38;100.00;99352.56;5051910;28;20558;-65
2022/11/06 09:32:47;;;;;;;1.13;1.10;;;;;;;14.47;100.00;99344.44;5051685;28;20709;-65
2022/11/06 09:35:15;;;;;;;0.70;0.70;;;;;;;14.52;100.00;99332.13;5052288;28;20527;-65
2022/11/06 09:37:42;;;;;;;0.57;0.57;;;;;;;14.58;100.00;99331.84;5051918;28;20719;-65
2022/11/06 09:40:19;;;;;;;0.90;0.90;;;;;;;14.63;100.00;99317.00;5051947;28;20224;-65
2022/11/06 09:42:55;;;;;;;0.77;0.77;;;;;;;14.59;100.00;99276.78;5051760;28;20580;-65
2022/11/06 09:45:24;;;;;;;0.83;0.83;;;;;;;14.78;100.00;99309.41;5051625;28;20205;-65
2022/11/06 09:47:56;;;;;;;0.73;0.73;;;;;;;14.88;100.00;99333.88;5051389;28;20203;-65
2022/11/06 09:50:29;;;;;;;0.73;0.73;;;;;;;14.94;100.00;99329.25;5051048;28;20201;-65
2022/11/06 09:52:58;;;;;;;0.47;0.47;;;;;;;15.06;100.00;99312.28;5051426;28;20224;-65
2022/11/06 09:55:31;;;;;;;0.60;0.60;;;;;;;15.12;100.00;99299.13;5051462;28;20198;-65
2022/11/06 09:57:59;;;;;;;0.80;0.80;;;;;;;15.10;100.00;99288.00;5051208;28;20221;-65
2022/11/06 10:00:26;;;;;;;0.93;0.93;;;;;;;15.28;100.00;99315.50;5051275;28;20195;-65
2022/11/06 10:02:55;;;;;;;1.00;1.00;;;;;;;15.21;100.00;99319.31;5051235;28;20573;-65
2022/11/06 10:05:28;;;;;;;1.43;1.33;;;;;;;15.07;100.00;99325.16;5051343;28;20289;-65
2022/11/06 10:07:57;;;;;;;1.33;1.33;;;;;;;14.99;100.00;99331.59;5051556;28;20204;-65
2022/11/06 10:10:30;;;;;;;0.80;0.80;;;;;;;14.80;100.00;99330.84;5051614;28;20208;-64
2022/11/06 10:13:12;;;;;;;0.60;0.60;;;;;;;14.68;100.00;99327.09;5051353;28;20285;-65
2022/11/06 10:15:52;;;;;;;0.50;0.50;;;;;;;14.55;100.00;99334.56;5051075;28;20232;-65
2022/11/06 10:18:26;;;;;;;0.60;0.60;;;;;;;14.44;100.00;99336.81;5051241;28;20212;-65
2022/11/06 10:21:01;;;;;;;0.80;0.80;;;;;;;14.34;100.00;99340.75;5048107;28;20292;-65
2022/11/06 10:23:40;;;;;;;0.90;0.90;;;;;;;14.28;100.00;99328.06;5048524;28;20198;-65
2022/11/06 10:26:12;;;;;;;0.53;0.53;;;;;;;14.22;100.00;99335.28;5051094;28;20207;-65
2022/11/06 10:29:07;;;;;;;1.60;1.50;;;;;;;14.22;100.00;99332.72;5051512;28;20224;-65
2022/11/06 10:31:39;;;;;;;0.50;0.50;;;;;;;14.13;100.00;99331.38;5049046;28;20251;-64
2022/11/06 10:34:13;;;;;;;1.33;1.23;;;;;;;14.14;100.00;99320.16;5051289;28;20669;-64
2022/11/06 10:36:46;;;;;;;0.77;0.77;;;;;;;14.16;100.00;99329.50;5051179;28;20212;-65
2022/11/06 10:39:18;;;;;;;0.50;0.50;;;;;;;14.20;100.00;99325.88;5051062;28;20581;-64
2022/11/06 10:41:50;;;;;;;0.60;0.60;;;;;;;14.01;100.00;99298.44;5051289;28;20288;-65
2022/11/06 10:44:24;;;;;;;0.50;0.50;;;;;;;14.16;100.00;99326.91;5051401;28;20193;-65
2022/11/06 10:46:55;;;;;;;0.83;0.83;;;;;;;14.18;100.00;99321.69;5050996;28;20205;-65
2022/11/06 10:49:30;;;;;;;0.63;0.63;;;;;;;14.16;100.00;99308.03;5050941;28;20250;-65
2022/11/06 10:52:11;;;;;;;0.60;0.60;;;;;;;14.13;100.00;99318.47;5051157;28;20196;-65
2022/11/06 10:54:50;;;;;;;0.70;0.70;;;;;;;14.13;100.00;99321.06;5051064;28;20193;-65
2022/11/06 10:57:28;;;;;;;0.50;0.50;;;;;;;14.14;100.00;99320.16;5050975;28;20214;-65
2022/11/06 10:59:55;;;;;;;0.70;0.70;;;;;;;14.05;100.00;99289.66;5050970;28;20664;-65
2022/11/06 11:02:28;;;;;;;0.50;0.50;;;;;;;14.23;100.00;99313.75;5050829;28;20204;-64
2022/11/06 11:04:55;;;;;;;0.40;0.40;;;;;;;14.18;100.00;99309.63;5051152;28;20585;-65
2022/11/06 11:07:23;;;;;;;0.50;0.50;;;;;;;14.22;100.00;99307.75;5054243;28;20291;-65
2022/11/06 11:09:50;;;;;;;0.50;0.50;;;;;;;14.25;100.00;99297.28;5054781;28;20205;-65
2022/11/06 11:12:23;;;;;;;0.80;0.80;;;;;;;14.31;100.00;99302.19;5054525;28;20200;-64
2022/11/06 11:15:21;;;;;;;0.43;0.43;;;;;;;14.38;100.00;99303.56;5054621;28;20231;-65
2022/11/06 11:18:19;;;;;;;1.00;1.00;;;;;;;14.45;100.00;99294.63;4993090;28;20214;-65
2022/11/06 11:20:49;;;;;;;0.60;0.60;;;;;;;14.52;100.00;99296.03;5053615;28;20196;-65
2022/11/06 11:23:23;;;;;;;0.57;0.57;;;;;;;14.55;100.00;99289.88;5054459;28;20202;-65
2022/11/06 11:25:53;;;;;;;0.47;0.47;;;;;;;14.59;100.00;99302.56;5054403;28;20201;-65
2022/11/06 11:28:27;;;;;;;0.50;0.50;;;;;;;14.64;100.00;99300.59;5054206;28;20207;-65
2022/11/06 11:30:58;;;;;;;0.47;0.47;;;;;;;14.68;100.00;99290.97;5042775;28;20200;-65
2022/11/06 11:33:26;;;;;;;0.67;0.67;;;;;;;14.76;100.00;99290.59;5054368;28;20205;-65
2022/11/06 11:35:54;;;;;;;1.20;1.20;;;;;;;14.80;100.00;99292.94;5054238;28;20721;-65
2022/11/06 11:38:24;;;;;;;0.50;0.50;;;;;;;14.85;100.00;99274.66;5045943;28;20738;-65
2022/11/06 11:40:51;;;;;;;0.73;0.73;;;;;;;14.99;100.00;99285.13;5053996;28;20287;-65
2022/11/06 11:43:26;;;;;;;0.90;0.90;;;;;;;15.10;100.00;99288.00;5053794;28;20205;-65
2022/11/06 11:46:17;;;;;;;0.80;0.80;;;;;;;15.18;100.00;99298.81;5052975;28;20211;-65
2022/11/06 11:48:46;;;;;;;0.60;0.60;;;;;;;15.29;100.00;99299.06;5054153;28;20643;-65
2022/11/06 11:51:21;;;;;;;0.70;0.70;;;;;;;15.26;100.00;99288.91;5053603;28;20200;-65